sensor_id;sensor_type;location;lat;lon;timestamp;pressure;altitude;pressure_sealevel;temperature;humidity
47809;BME280;33573;38.790;-77.084;2023-11-18T00:00:22;100824.42;;;22.84;28.13
47809;BME280;33573;38.790;-77.084;2023-11-18T00:02:47;100820.54;;;23.18;28.25
47809;BME280;33573;38.790;-77.084;2023-11-18T00:05:13;100816.25;;;23.08;28.11
47809;BME280;33573;38.790;-77.084;2023-11-18T00:07:38;100816.48;;;22.89;28.12
47809;BME280;33573;38.790;-77.084;2023-11-18T00:10:04;100812.68;;;22.87;28.13
47809;BME280;33573;38.790;-77.084;2023-11-18T00:12:29;100810.76;;;23.05;27.99
47809;BME280;33573;38.790;-77.084;2023-11-18T00:14:55;100805.92;;;23.15;28.11
47809;BME280;33573;38.790;-77.084;2023-11-18T00:17:20;100805.39;;;22.99;28.36
47809;BME280;33573;38.790;-77.084;2023-11-18T00:19:45;100805.39;;;23.10;28.25
47809;BME280;33573;38.790;-77.084;2023-11-18T00:22:11;100799.16;;;23.30;28.24
47809;BME280;33573;38.790;-77.084;2023-11-18T00:24:36;100799.63;;;22.86;28.26
47809;BME280;33573;38.790;-77.084;2023-11-18T00:27:02;100793.47;;;23.14;28.26
47809;BME280;33573;38.790;-77.084;2023-11-18T00:29:27;100789.68;;;22.81;28.31
47809;BME280;33573;38.790;-77.084;2023-11-18T00:31:53;100788.73;;;23.26;28.36
47809;BME280;33573;38.790;-77.084;2023-11-18T00:34:18;100783.68;;;22.76;28.39
47809;BME280;33573;38.790;-77.084;2023-11-18T00:36:43;100783.27;;;22.87;28.31
47809;BME280;33573;38.790;-77.084;2023-11-18T00:39:09;100780.39;;;22.84;28.60
47809;BME280;33573;38.790;-77.084;2023-11-18T00:41:34;100780.97;;;23.20;28.18
47809;BME280;33573;38.790;-77.084;2023-11-18T00:44:00;100775.19;;;23.15;28.45
47809;BME280;33573;38.790;-77.084;2023-11-18T00:46:25;100774.83;;;23.33;28.34
47809;BME280;33573;38.790;-77.084;2023-11-18T00:48:51;100780.61;;;23.49;28.11
47809;BME280;33573;38.790;-77.084;2023-11-18T00:51:16;100781.34;;;22.85;28.45
47809;BME280;33573;38.790;-77.084;2023-11-18T00:53:42;100778.60;;;23.23;28.52
47809;BME280;33573;38.790;-77.084;2023-11-18T00:56:07;100774.39;;;23.17;28.19
47809;BME280;33573;38.790;-77.084;2023-11-18T00:58:32;100767.27;;;23.33;28.28
47809;BME280;33573;38.790;-77.084;2023-11-18T01:00:58;100769.31;;;23.40;28.33
47809;BME280;33573;38.790;-77.084;2023-11-18T01:03:23;100771.60;;;23.26;28.12
47809;BME280;33573;38.790;-77.084;2023-11-18T01:05:48;100773.09;;;23.03;28.08
47809;BME280;33573;38.790;-77.084;2023-11-18T01:08:14;100773.34;;;23.44;28.32
47809;BME280;33573;38.790;-77.084;2023-11-18T01:10:39;100775.03;;;23.25;28.12
47809;BME280;33573;38.790;-77.084;2023-11-18T01:13:05;100776.52;;;23.15;28.61
47809;BME280;33573;38.790;-77.084;2023-11-18T01:15:30;100781.53;;;23.27;28.57
47809;BME280;33573;38.790;-77.084;2023-11-18T01:17:55;100777.30;;;23.30;28.54
47809;BME280;33573;38.790;-77.084;2023-11-18T01:20:21;100773.02;;;23.03;28.89
47809;BME280;33573;38.790;-77.084;2023-11-18T01:22:46;100773.72;;;22.92;28.62
47809;BME280;33573;38.790;-77.084;2023-11-18T01:25:12;100774.70;;;23.11;28.68
47809;BME280;33573;38.790;-77.084;2023-11-18T01:27:37;100775.42;;;22.92;28.70
47809;BME280;33573;38.790;-77.084;2023-11-18T01:30:03;100777.06;;;22.74;29.26
47809;BME280;33573;38.790;-77.084;2023-11-18T01:32:28;100774.20;;;22.45;29.32
47809;BME280;33573;38.790;-77.084;2023-11-18T01:34:53;100763.42;;;22.90;28.81
47809;BME280;33573;38.790;-77.084;2023-11-18T01:37:19;100754.74;;;22.38;29.13
47809;BME280;33573;38.790;-77.084;2023-11-18T01:39:44;100749.23;;;22.73;29.35
47809;BME280;33573;38.790;-77.084;2023-11-18T01:42:10;100747.77;;;22.92;28.85
47809;BME280;33573;38.790;-77.084;2023-11-18T01:44:35;100746.53;;;22.80;28.93
47809;BME280;33573;38.790;-77.084;2023-11-18T01:47:02;100739.47;;;22.78;28.97
47809;BME280;33573;38.790;-77.084;2023-11-18T01:49:27;100738.35;;;22.86;29.17
47809;BME280;33573;38.790;-77.084;2023-11-18T01:51:52;100740.43;;;23.36;28.58
47809;BME280;33573;38.790;-77.084;2023-11-18T01:54:17;100736.25;;;23.39;28.49
47809;BME280;33573;38.790;-77.084;2023-11-18T01:56:43;100730.31;;;23.36;28.46
47809;BME280;33573;38.790;-77.084;2023-11-18T01:59:08;100727.73;;;23.25;28.35
47809;BME280;33573;38.790;-77.084;2023-11-18T02:01:34;100721.41;;;22.97;28.60
47809;BME280;33573;38.790;-77.084;2023-11-18T02:03:59;100724.20;;;23.13;28.77
47809;BME280;33573;38.790;-77.084;2023-11-18T02:06:24;100722.83;;;23.26;28.70
47809;BME280;33573;38.790;-77.084;2023-11-18T02:08:49;100723.29;;;22.87;28.77
47809;BME280;33573;38.790;-77.084;2023-11-18T02:11:20;100728.28;;;22.97;28.72
47809;BME280;33573;38.790;-77.084;2023-11-18T02:13:42;100728.11;;;22.83;28.53
47809;BME280;33573;38.790;-77.084;2023-11-18T02:16:08;100726.94;;;23.21;28.72
47809;BME280;33573;38.790;-77.084;2023-11-18T02:18:32;100727.02;;;23.30;28.48
47809;BME280;33573;38.790;-77.084;2023-11-18T02:20:57;100728.12;;;23.48;28.36
47809;BME280;33573;38.790;-77.084;2023-11-18T02:23:22;100731.66;;;23.45;28.42
47809;BME280;33573;38.790;-77.084;2023-11-18T02:25:57;100732.04;;;23.06;28.65
47809;BME280;33573;38.790;-77.084;2023-11-18T02:28:13;100719.95;;;23.02;28.63
47809;BME280;33573;38.790;-77.084;2023-11-18T02:30:38;100718.09;;;22.85;28.61
47809;BME280;33573;38.790;-77.084;2023-11-18T02:33:07;100721.52;;;22.87;28.60
47809;BME280;33573;38.790;-77.084;2023-11-18T02:35:31;100722.67;;;23.08;28.70
47809;BME280;33573;38.790;-77.084;2023-11-18T02:37:54;100720.54;;;22.93;28.86
47809;BME280;33573;38.790;-77.084;2023-11-18T02:40:23;100724.09;;;23.23;28.82
47809;BME280;33573;38.790;-77.084;2023-11-18T02:42:46;100725.12;;;23.33;28.70
47809;BME280;33573;38.790;-77.084;2023-11-18T02:45:12;100723.66;;;23.11;28.67
47809;BME280;33573;38.790;-77.084;2023-11-18T02:47:36;100720.76;;;23.11;28.83
47809;BME280;33573;38.790;-77.084;2023-11-18T02:50:02;100721.26;;;23.09;29.05
47809;BME280;33573;38.790;-77.084;2023-11-18T02:52:27;100724.05;;;22.87;29.03
47809;BME280;33573;38.790;-77.084;2023-11-18T02:54:52;100722.14;;;22.85;29.13
47809;BME280;33573;38.790;-77.084;2023-11-18T02:57:18;100717.61;;;23.44;28.95
47809;BME280;33573;38.790;-77.084;2023-11-18T02:59:43;100717.15;;;23.34;29.21
47809;BME280;33573;38.790;-77.084;2023-11-18T03:02:09;100717.05;;;23.16;29.06
47809;BME280;33573;38.790;-77.084;2023-11-18T03:04:34;100720.17;;;23.46;29.16
47809;BME280;33573;38.790;-77.084;2023-11-18T03:07:00;100715.11;;;23.21;29.16
47809;BME280;33573;38.790;-77.084;2023-11-18T03:09:25;100711.84;;;23.15;29.14
47809;BME280;33573;38.790;-77.084;2023-11-18T03:11:50;100709.43;;;23.02;29.10
47809;BME280;33573;38.790;-77.084;2023-11-18T03:14:15;100711.98;;;23.13;29.24
47809;BME280;33573;38.790;-77.084;2023-11-18T03:16:41;100711.64;;;22.82;29.64
47809;BME280;33573;38.790;-77.084;2023-11-18T03:19:06;100706.44;;;23.20;29.16
47809;BME280;33573;38.790;-77.084;2023-11-18T03:21:32;100702.29;;;23.27;29.01
47809;BME280;33573;38.790;-77.084;2023-11-18T03:23:57;100701.02;;;23.06;28.82
47809;BME280;33573;38.790;-77.084;2023-11-18T03:26:23;100702.49;;;23.42;28.79
47809;BME280;33573;38.790;-77.084;2023-11-18T03:28:48;100699.54;;;23.37;28.73
47809;BME280;33573;38.790;-77.084;2023-11-18T03:31:14;100702.16;;;23.31;28.81
47809;BME280;33573;38.790;-77.084;2023-11-18T03:33:39;100708.19;;;23.01;28.86
47809;BME280;33573;38.790;-77.084;2023-11-18T03:36:10;100707.73;;;23.58;28.71
47809;BME280;33573;38.790;-77.084;2023-11-18T03:38:30;100703.36;;;23.26;28.78
47809;BME280;33573;38.790;-77.084;2023-11-18T03:40:55;100696.68;;;23.44;28.86
47809;BME280;33573;38.790;-77.084;2023-11-18T03:43:21;100703.58;;;23.25;28.79
47809;BME280;33573;38.790;-77.084;2023-11-18T03:45:46;100708.67;;;23.24;28.86
47809;BME280;33573;38.790;-77.084;2023-11-18T03:48:11;100701.64;;;23.01;28.77
47809;BME280;33573;38.790;-77.084;2023-11-18T03:50:37;100696.07;;;23.24;28.74
47809;BME280;33573;38.790;-77.084;2023-11-18T03:53:02;100695.11;;;22.95;28.80
47809;BME280;33573;38.790;-77.084;2023-11-18T03:55:27;100698.68;;;23.07;28.66
47809;BME280;33573;38.790;-77.084;2023-11-18T03:57:53;100698.45;;;23.33;28.68
47809;BME280;33573;38.790;-77.084;2023-11-18T04:00:19;100697.38;;;23.33;28.62
47809;BME280;33573;38.790;-77.084;2023-11-18T04:02:44;100694.63;;;23.57;28.62
47809;BME280;33573;38.790;-77.084;2023-11-18T04:05:09;100689.02;;;22.79;28.93
47809;BME280;33573;38.790;-77.084;2023-11-18T04:07:35;100686.06;;;23.15;28.77
47809;BME280;33573;38.790;-77.084;2023-11-18T04:10:00;100676.57;;;23.01;28.99
47809;BME280;33573;38.790;-77.084;2023-11-18T04:12:26;100665.75;;;23.11;28.79
47809;BME280;33573;38.790;-77.084;2023-11-18T04:14:51;100663.32;;;23.23;28.93
47809;BME280;33573;38.790;-77.084;2023-11-18T04:17:16;100656.95;;;23.21;28.95
47809;BME280;33573;38.790;-77.084;2023-11-18T04:19:42;100653.41;;;22.72;29.00
47809;BME280;33573;38.790;-77.084;2023-11-18T04:22:07;100652.16;;;23.24;28.93
47809;BME280;33573;38.790;-77.084;2023-11-18T04:24:33;100644.94;;;22.56;29.16
47809;BME280;33573;38.790;-77.084;2023-11-18T04:26:58;100640.28;;;22.51;29.21
47809;BME280;33573;38.790;-77.084;2023-11-18T04:29:23;100637.89;;;22.75;28.99
47809;BME280;33573;38.790;-77.084;2023-11-18T04:31:49;100635.38;;;22.74;28.95
47809;BME280;33573;38.790;-77.084;2023-11-18T04:34:14;100625.62;;;22.48;29.27
47809;BME280;33573;38.790;-77.084;2023-11-18T04:36:41;100622.75;;;22.97;29.21
47809;BME280;33573;38.790;-77.084;2023-11-18T04:39:05;100621.28;;;22.86;29.10
47809;BME280;33573;38.790;-77.084;2023-11-18T04:41:31;100615.89;;;22.90;29.06
47809;BME280;33573;38.790;-77.084;2023-11-18T04:43:56;100619.20;;;22.81;29.14
47809;BME280;33573;38.790;-77.084;2023-11-18T04:46:22;100621.95;;;22.62;29.68
47809;BME280;33573;38.790;-77.084;2023-11-18T04:48:47;100613.31;;;22.56;29.41
47809;BME280;33573;38.790;-77.084;2023-11-18T04:51:12;100608.94;;;22.79;29.41
47809;BME280;33573;38.790;-77.084;2023-11-18T04:53:38;100605.18;;;22.16;29.64
47809;BME280;33573;38.790;-77.084;2023-11-18T04:56:04;100595.70;;;22.02;30.30
47809;BME280;33573;38.790;-77.084;2023-11-18T04:58:28;100586.91;;;22.47;29.77
47809;BME280;33573;38.790;-77.084;2023-11-18T05:00:54;100588.38;;;22.41;29.58
47809;BME280;33573;38.790;-77.084;2023-11-18T05:03:19;100583.23;;;22.56;29.63
47809;BME280;33573;38.790;-77.084;2023-11-18T05:05:45;100582.54;;;21.94;30.05
47809;BME280;33573;38.790;-77.084;2023-11-18T05:08:18;100573.03;;;22.33;29.64
47809;BME280;33573;38.790;-77.084;2023-11-18T05:10:36;100573.19;;;22.40;29.56
47809;BME280;33573;38.790;-77.084;2023-11-18T05:13:01;100567.62;;;21.32;30.54
47809;BME280;33573;38.790;-77.084;2023-11-18T05:15:27;100564.23;;;21.60;30.44
47809;BME280;33573;38.790;-77.084;2023-11-18T05:17:52;100558.51;;;22.76;29.76
47809;BME280;33573;38.790;-77.084;2023-11-18T05:20:17;100557.26;;;22.43;29.76
47809;BME280;33573;38.790;-77.084;2023-11-18T05:22:43;100553.57;;;22.22;29.99
47809;BME280;33573;38.790;-77.084;2023-11-18T05:25:08;100554.28;;;22.70;29.48
47809;BME280;33573;38.790;-77.084;2023-11-18T05:27:34;100551.10;;;22.65;29.49
47809;BME280;33573;38.790;-77.084;2023-11-18T05:29:59;100547.82;;;22.19;30.02
47809;BME280;33573;38.790;-77.084;2023-11-18T05:32:27;100547.34;;;22.83;29.38
47809;BME280;33573;38.790;-77.084;2023-11-18T05:34:50;100547.02;;;22.48;29.73
47809;BME280;33573;38.790;-77.084;2023-11-18T05:37:15;100544.44;;;22.93;29.23
47809;BME280;33573;38.790;-77.084;2023-11-18T05:39:41;100543.67;;;22.23;29.91
47809;BME280;33573;38.790;-77.084;2023-11-18T05:42:06;100539.13;;;22.29;29.82
47809;BME280;33573;38.790;-77.084;2023-11-18T05:44:31;100538.10;;;22.45;29.65
47809;BME280;33573;38.790;-77.084;2023-11-18T05:46:57;100530.60;;;21.94;30.28
47809;BME280;33573;38.790;-77.084;2023-11-18T05:49:22;100526.54;;;22.52;29.08
47809;BME280;33573;38.790;-77.084;2023-11-18T05:51:47;100521.02;;;21.93;29.68
47809;BME280;33573;38.790;-77.084;2023-11-18T05:54:13;100519.16;;;21.78;30.14
47809;BME280;33573;38.790;-77.084;2023-11-18T05:56:38;100516.59;;;22.41;29.69
47809;BME280;33573;38.790;-77.084;2023-11-18T05:59:04;100517.30;;;22.40;29.72
47809;BME280;33573;38.790;-77.084;2023-11-18T06:01:30;100515.69;;;22.37;29.75
47809;BME280;33573;38.790;-77.084;2023-11-18T06:03:55;100510.55;;;21.96;30.10
47809;BME280;33573;38.790;-77.084;2023-11-18T06:06:20;100506.74;;;21.72;30.40
47809;BME280;33573;38.790;-77.084;2023-11-18T06:08:45;100503.17;;;22.17;29.91
47809;BME280;33573;38.790;-77.084;2023-11-18T06:11:12;100493.73;;;22.63;29.47
47809;BME280;33573;38.790;-77.084;2023-11-18T06:13:36;100488.06;;;22.27;29.49
47809;BME280;33573;38.790;-77.084;2023-11-18T06:16:02;100487.84;;;22.06;29.74
47809;BME280;33573;38.790;-77.084;2023-11-18T06:18:27;100487.87;;;21.93;29.89
47809;BME280;33573;38.790;-77.084;2023-11-18T06:20:53;100482.99;;;22.44;29.35
47809;BME280;33573;38.790;-77.084;2023-11-18T06:23:18;100479.84;;;22.46;29.32
47809;BME280;33573;38.790;-77.084;2023-11-18T06:25:43;100474.57;;;21.76;30.27
47809;BME280;33573;38.790;-77.084;2023-11-18T06:28:09;100470.98;;;22.08;30.01
47809;BME280;33573;38.790;-77.084;2023-11-18T06:30:34;100463.21;;;22.38;29.61
47809;BME280;33573;38.790;-77.084;2023-11-18T06:33:00;100464.17;;;21.96;30.08
47809;BME280;33573;38.790;-77.084;2023-11-18T06:35:25;100466.62;;;22.78;29.49
47809;BME280;33573;38.790;-77.084;2023-11-18T06:37:51;100461.71;;;22.55;29.42
47809;BME280;33573;38.790;-77.084;2023-11-18T06:40:16;100458.03;;;22.30;29.69
47809;BME280;33573;38.790;-77.084;2023-11-18T06:42:42;100455.91;;;22.41;29.60
47809;BME280;33573;38.790;-77.084;2023-11-18T06:45:07;100452.55;;;22.08;29.85
47809;BME280;33573;38.790;-77.084;2023-11-18T06:47:32;100445.22;;;22.13;29.82
47809;BME280;33573;38.790;-77.084;2023-11-18T06:49:58;100437.94;;;22.37;29.57
47809;BME280;33573;38.790;-77.084;2023-11-18T06:52:23;100438.27;;;22.34;29.57
47809;BME280;33573;38.790;-77.084;2023-11-18T06:54:49;100431.50;;;22.00;29.65
47809;BME280;33573;38.790;-77.084;2023-11-18T06:57:14;100424.35;;;22.46;29.37
47809;BME280;33573;38.790;-77.084;2023-11-18T06:59:40;100416.31;;;21.43;30.02
47809;BME280;33573;38.790;-77.084;2023-11-18T07:02:05;100412.02;;;22.00;29.95
47809;BME280;33573;38.790;-77.084;2023-11-18T07:04:30;100399.12;;;22.38;29.53
47809;BME280;33573;38.790;-77.084;2023-11-18T07:06:56;100398.10;;;22.30;29.64
47809;BME280;33573;38.790;-77.084;2023-11-18T07:09:21;100401.13;;;21.64;30.29
47809;BME280;33573;38.790;-77.084;2023-11-18T07:11:47;100400.81;;;22.45;29.42
47809;BME280;33573;38.790;-77.084;2023-11-18T07:14:12;100388.21;;;22.39;29.76
47809;BME280;33573;38.790;-77.084;2023-11-18T07:16:38;100384.44;;;22.28;29.63
47809;BME280;33573;38.790;-77.084;2023-11-18T07:19:03;100374.40;;;21.77;30.13
47809;BME280;33573;38.790;-77.084;2023-11-18T07:21:28;100363.93;;;21.66;30.22
47809;BME280;33573;38.790;-77.084;2023-11-18T07:23:54;100371.13;;;22.11;29.54
47809;BME280;33573;38.790;-77.084;2023-11-18T07:26:19;100368.85;;;21.40;30.53
47809;BME280;33573;38.790;-77.084;2023-11-18T07:28:45;100363.77;;;22.30;29.58
47809;BME280;33573;38.790;-77.084;2023-11-18T07:31:10;100364.33;;;21.95;29.87
47809;BME280;33573;38.790;-77.084;2023-11-18T07:33:35;100366.74;;;22.34;29.51
47809;BME280;33573;38.790;-77.084;2023-11-18T07:36:01;100361.80;;;21.81;30.09
47809;BME280;33573;38.790;-77.084;2023-11-18T07:38:26;100359.68;;;22.03;29.81
47809;BME280;33573;38.790;-77.084;2023-11-18T07:40:52;100348.86;;;22.57;29.47
47809;BME280;33573;38.790;-77.084;2023-11-18T07:43:17;100341.72;;;21.19;30.46
47809;BME280;33573;38.790;-77.084;2023-11-18T07:45:43;100347.32;;;22.09;29.73
47809;BME280;33573;38.790;-77.084;2023-11-18T07:48:09;100346.59;;;21.91;29.89
47809;BME280;33573;38.790;-77.084;2023-11-18T07:50:34;100347.79;;;21.82;29.78
47809;BME280;33573;38.790;-77.084;2023-11-18T07:52:59;100345.72;;;21.96;29.89
47809;BME280;33573;38.790;-77.084;2023-11-18T07:55:24;100344.41;;;21.20;30.71
47809;BME280;33573;38.790;-77.084;2023-11-18T07:57:50;100352.66;;;21.53;30.27
47809;BME280;33573;38.790;-77.084;2023-11-18T08:00:15;100358.32;;;21.79;30.03
47809;BME280;33573;38.790;-77.084;2023-11-18T08:02:41;100364.47;;;22.17;29.58
47809;BME280;33573;38.790;-77.084;2023-11-18T08:05:06;100364.88;;;21.62;29.91
47809;BME280;33573;38.790;-77.084;2023-11-18T08:07:31;100361.42;;;21.56;30.25
47809;BME280;33573;38.790;-77.084;2023-11-18T08:09:57;100356.85;;;21.42;30.36
47809;BME280;33573;38.790;-77.084;2023-11-18T08:12:22;100361.03;;;22.27;29.76
47809;BME280;33573;38.790;-77.084;2023-11-18T08:14:48;100350.54;;;21.54;30.23
47809;BME280;33573;38.790;-77.084;2023-11-18T08:17:13;100351.47;;;22.12;29.89
47809;BME280;33573;38.790;-77.084;2023-11-18T08:19:39;100345.31;;;21.49;30.35
47809;BME280;33573;38.790;-77.084;2023-11-18T08:22:04;100348.65;;;21.13;30.69
47809;BME280;33573;38.790;-77.084;2023-11-18T08:24:30;100353.13;;;20.95;30.89
47809;BME280;33573;38.790;-77.084;2023-11-18T08:26:55;100352.73;;;21.39;30.16
47809;BME280;33573;38.790;-77.084;2023-11-18T08:29:20;100346.34;;;21.26;30.53
47809;BME280;33573;38.790;-77.084;2023-11-18T08:31:46;100341.51;;;21.13;30.72
47809;BME280;33573;38.790;-77.084;2023-11-18T08:34:11;100343.91;;;22.00;29.98
47809;BME280;33573;38.790;-77.084;2023-11-18T08:36:37;100340.03;;;20.92;30.93
47809;BME280;33573;38.790;-77.084;2023-11-18T08:39:02;100339.62;;;21.30;30.78
47809;BME280;33573;38.790;-77.084;2023-11-18T08:41:27;100337.40;;;21.01;30.82
47809;BME280;33573;38.790;-77.084;2023-11-18T08:43:53;100333.80;;;21.04;30.82
47809;BME280;33573;38.790;-77.084;2023-11-18T08:46:18;100331.54;;;21.07;30.79
47809;BME280;33573;38.790;-77.084;2023-11-18T08:48:44;100333.25;;;21.02;30.79
47809;BME280;33573;38.790;-77.084;2023-11-18T08:51:09;100334.67;;;20.54;31.40
47809;BME280;33573;38.790;-77.084;2023-11-18T08:53:35;100332.95;;;20.59;31.30
47809;BME280;33573;38.790;-77.084;2023-11-18T08:56:02;100336.07;;;21.34;30.46
47809;BME280;33573;38.790;-77.084;2023-11-18T08:58:26;100340.53;;;20.84;31.30
47809;BME280;33573;38.790;-77.084;2023-11-18T09:00:53;100344.55;;;20.74;31.07
47809;BME280;33573;38.790;-77.084;2023-11-18T09:03:18;100336.33;;;20.78;31.10
47809;BME280;33573;38.790;-77.084;2023-11-18T09:05:42;100331.15;;;20.58;31.88
47809;BME280;33573;38.790;-77.084;2023-11-18T09:08:07;100326.72;;;20.46;31.49
47809;BME280;33573;38.790;-77.084;2023-11-18T09:10:33;100327.48;;;20.04;31.94
47809;BME280;33573;38.790;-77.084;2023-11-18T09:12:58;100327.86;;;20.54;31.43
47809;BME280;33573;38.790;-77.084;2023-11-18T09:15:24;100327.44;;;20.52;31.34
47809;BME280;33573;38.790;-77.084;2023-11-18T09:17:49;100327.61;;;20.76;31.27
47809;BME280;33573;38.790;-77.084;2023-11-18T09:20:15;100325.94;;;20.61;31.28
47809;BME280;33573;38.790;-77.084;2023-11-18T09:22:40;100319.75;;;20.41;31.42
47809;BME280;33573;38.790;-77.084;2023-11-18T09:25:06;100320.62;;;20.36;31.80
47809;BME280;33573;38.790;-77.084;2023-11-18T09:27:31;100323.36;;;20.81;30.97
47809;BME280;33573;38.790;-77.084;2023-11-18T09:29:56;100327.82;;;20.21;32.30
47809;BME280;33573;38.790;-77.084;2023-11-18T09:32:24;100332.58;;;19.78;32.54
47809;BME280;33573;38.790;-77.084;2023-11-18T09:34:47;100338.66;;;20.23;32.04
47809;BME280;33573;38.790;-77.084;2023-11-18T09:37:12;100341.53;;;20.03;32.21
47809;BME280;33573;38.790;-77.084;2023-11-18T09:39:38;100339.46;;;19.50;32.50
47809;BME280;33573;38.790;-77.084;2023-11-18T09:42:05;100337.39;;;19.94;32.63
47809;BME280;33573;38.790;-77.084;2023-11-18T09:44:29;100329.13;;;20.13;32.12
47809;BME280;33573;38.790;-77.084;2023-11-18T09:46:57;100321.78;;;19.71;32.86
47809;BME280;33573;38.790;-77.084;2023-11-18T09:49:26;100319.09;;;19.47;32.88
47809;BME280;33573;38.790;-77.084;2023-11-18T09:51:46;100325.97;;;19.57;33.07
47809;BME280;33573;38.790;-77.084;2023-11-18T09:54:16;100331.00;;;19.07;33.37
47809;BME280;33573;38.790;-77.084;2023-11-18T09:56:41;100332.11;;;19.65;32.95
47809;BME280;33573;38.790;-77.084;2023-11-18T09:59:10;100335.94;;;19.25;33.13
47809;BME280;33573;38.790;-77.084;2023-11-18T10:01:27;100340.71;;;19.12;33.63
47809;BME280;33573;38.790;-77.084;2023-11-18T10:03:53;100338.37;;;19.20;33.54
47809;BME280;33573;38.790;-77.084;2023-11-18T10:06:18;100337.28;;;19.25;33.42
47809;BME280;33573;38.790;-77.084;2023-11-18T10:08:43;100338.47;;;19.06;33.70
47809;BME280;33573;38.790;-77.084;2023-11-18T10:11:08;100343.24;;;18.90;33.95
47809;BME280;33573;38.790;-77.084;2023-11-18T10:13:34;100343.04;;;18.94;33.81
47809;BME280;33573;38.790;-77.084;2023-11-18T10:16:01;100347.55;;;19.02;33.78
47809;BME280;33573;38.790;-77.084;2023-11-18T10:18:26;100348.03;;;19.15;33.61
47809;BME280;33573;38.790;-77.084;2023-11-18T10:20:51;100350.77;;;19.16;33.55
47809;BME280;33573;38.790;-77.084;2023-11-18T10:23:17;100356.30;;;18.99;33.79
47809;BME280;33573;38.790;-77.084;2023-11-18T10:25:46;100356.37;;;18.78;33.68
47809;BME280;33573;38.790;-77.084;2023-11-18T10:28:07;100359.69;;;19.30;33.37
47809;BME280;33573;38.790;-77.084;2023-11-18T10:30:32;100361.79;;;19.09;33.32
47809;BME280;33573;38.790;-77.084;2023-11-18T10:32:58;100364.70;;;19.17;33.50
47809;BME280;33573;38.790;-77.084;2023-11-18T10:35:23;100364.15;;;19.22;33.10
47809;BME280;33573;38.790;-77.084;2023-11-18T10:37:48;100368.55;;;19.23;33.43
47809;BME280;33573;38.790;-77.084;2023-11-18T10:40:14;100368.90;;;18.89;33.55
47809;BME280;33573;38.790;-77.084;2023-11-18T10:42:39;100377.84;;;18.83;33.60
47809;BME280;33573;38.790;-77.084;2023-11-18T10:45:05;100381.39;;;19.12;33.55
47809;BME280;33573;38.790;-77.084;2023-11-18T10:47:33;100383.44;;;19.62;32.97
47809;BME280;33573;38.790;-77.084;2023-11-18T10:49:56;100387.33;;;19.87;32.62
47809;BME280;33573;38.790;-77.084;2023-11-18T10:52:21;100383.13;;;20.02;32.45
47809;BME280;33573;38.790;-77.084;2023-11-18T10:54:51;100381.93;;;20.31;32.15
47809;BME280;33573;38.790;-77.084;2023-11-18T10:57:12;100381.96;;;20.18;31.93
47809;BME280;33573;38.790;-77.084;2023-11-18T11:04:42;100387.64;;;19.60;32.39
47809;BME280;33573;38.790;-77.084;2023-11-18T11:06:53;100396.78;;;19.62;32.72
47809;BME280;33573;38.790;-77.084;2023-11-18T11:09:19;100397.31;;;19.89;32.64
47809;BME280;33573;38.790;-77.084;2023-11-18T11:11:48;100399.89;;;20.29;32.12
47809;BME280;33573;38.790;-77.084;2023-11-18T11:14:12;100400.06;;;20.18;32.32
47809;BME280;33573;38.790;-77.084;2023-11-18T11:16:40;100403.64;;;19.97;32.26
47809;BME280;33573;38.790;-77.084;2023-11-18T11:19:03;100404.82;;;20.07;32.21
47809;BME280;33573;38.790;-77.084;2023-11-18T11:21:27;100404.00;;;19.99;32.28
47809;BME280;33573;38.790;-77.084;2023-11-18T11:23:55;100408.66;;;20.07;32.43
47809;BME280;33573;38.790;-77.084;2023-11-18T11:26:28;100411.62;;;20.12;32.11
47809;BME280;33573;38.790;-77.084;2023-11-18T11:28:46;100421.76;;;20.33;32.16
47809;BME280;33573;38.790;-77.084;2023-11-18T11:31:14;100423.96;;;20.37;31.81
47809;BME280;33573;38.790;-77.084;2023-11-18T11:33:36;100427.73;;;20.35;32.12
47809;BME280;33573;38.790;-77.084;2023-11-18T11:35:59;100427.75;;;20.18;32.07
47809;BME280;33573;38.790;-77.084;2023-11-18T11:38:24;100422.47;;;20.35;31.89
47809;BME280;33573;38.790;-77.084;2023-11-18T11:40:49;100423.53;;;20.28;32.02
47809;BME280;33573;38.790;-77.084;2023-11-18T11:43:15;100427.55;;;20.19;32.16
47809;BME280;33573;38.790;-77.084;2023-11-18T11:45:40;100430.83;;;20.50;31.75
47809;BME280;33573;38.790;-77.084;2023-11-18T11:48:07;100429.37;;;20.21;32.10
47809;BME280;33573;38.790;-77.084;2023-11-18T11:50:33;100440.17;;;20.92;31.55
47809;BME280;33573;38.790;-77.084;2023-11-18T11:53:02;100451.69;;;20.73;31.46
47809;BME280;33573;38.790;-77.084;2023-11-18T11:55:29;100454.13;;;20.59;31.63
47809;BME280;33573;38.790;-77.084;2023-11-18T11:57:51;100454.36;;;20.65;31.51
47809;BME280;33573;38.790;-77.084;2023-11-18T12:00:13;100463.51;;;21.18;30.88
47809;BME280;33573;38.790;-77.084;2023-11-18T12:02:38;100472.57;;;20.48;31.75
47809;BME280;33573;38.790;-77.084;2023-11-18T12:05:03;100477.47;;;20.58;31.95
47809;BME280;33573;38.790;-77.084;2023-11-18T12:07:29;100486.86;;;20.17;32.20
47809;BME280;33573;38.790;-77.084;2023-11-18T12:09:56;100493.04;;;20.48;32.13
47809;BME280;33573;38.790;-77.084;2023-11-18T12:12:21;100496.85;;;20.15;32.28
47809;BME280;33573;38.790;-77.084;2023-11-18T12:14:51;100496.49;;;20.37;31.73
47809;BME280;33573;38.790;-77.084;2023-11-18T12:17:10;100500.45;;;20.27;31.86
47809;BME280;33573;38.790;-77.084;2023-11-18T12:19:37;100506.29;;;21.40;30.78
47809;BME280;33573;38.790;-77.084;2023-11-18T12:22:01;100517.18;;;20.76;31.77
47809;BME280;33573;38.790;-77.084;2023-11-18T12:24:26;100532.36;;;21.86;30.48